sensor_id;sensor_type;location;lat;lon;timestamp;pressure;altitude;pressure_sealevel;temperature;humidity
11172;BME280;5642;50.830;12.082;2023-03-12T00:57:44;99182.38;;;1.02;50.37
11172;BME280;5642;50.830;12.082;2023-03-12T01:00:11;99180.66;;;1.03;50.28
11172;BME280;5642;50.830;12.082;2023-03-12T01:02:38;99163.44;;;0.96;50.38
11172;BME280;5642;50.830;12.082;2023-03-12T01:05:06;99174.63;;;1.02;50.28
11172;BME280;5642;50.830;12.082;2023-03-12T01:07:34;99176.34;;;1.00;50.03
11172;BME280;5642;50.830;12.082;2023-03-12T01:10:00;99173.75;;;0.94;50.07
11172;BME280;5642;50.830;12.082;2023-03-12T01:12:29;99151.34;;;0.81;50.26
11172;BME280;5642;50.830;12.082;2023-03-12T01:14:55;99153.94;;;0.83;50.29
11172;BME280;5642;50.830;12.082;2023-03-12T01:17:21;99163.44;;;0.96;50.14
11172;BME280;5642;50.830;12.082;2023-03-12T01:19:47;99166.88;;;0.98;50.03
11172;BME280;5642;50.830;12.082;2023-03-12T01:22:13;99178.91;;;0.97;49.98
11172;BME280;5642;50.830;12.082;2023-03-12T01:24:40;99176.34;;;0.99;50.02
11172;BME280;5642;50.830;12.082;2023-03-12T01:27:06;99174.59;;;0.95;50.16
11172;BME280;5642;50.830;12.082;2023-03-12T01:29:32;99179.78;;;1.02;50.13
11172;BME280;5642;50.830;12.082;2023-03-12T01:31:58;99173.78;;;1.05;50.03
11172;BME280;5642;50.830;12.082;2023-03-12T01:34:24;99143.66;;;0.89;49.89
11172;BME280;5642;50.830;12.082;2023-03-12T01:36:54;99141.91;;;0.86;49.75
11172;BME280;5642;50.830;12.082;2023-03-12T01:39:20;99154.84;;;0.92;49.86
11172;BME280;5642;50.830;12.082;2023-03-12T01:41:46;99178.94;;;1.09;50.03
11172;BME280;5642;50.830;12.082;2023-03-12T01:44:13;99175.50;;;1.06;50.01
11172;BME280;5642;50.830;12.082;2023-03-12T01:46:41;99160.88;;;0.97;50.11
11172;BME280;5642;50.830;12.082;2023-03-12T01:49:30;99177.22;;;0.99;49.91
11172;BME280;5642;50.830;12.082;2023-03-12T01:52:14;99159.09;;;0.87;50.42
11172;BME280;5642;50.830;12.082;2023-03-12T01:55:06;99173.75;;;0.91;50.36
11172;BME280;5642;50.830;12.082;2023-03-12T01:57:44;99171.13;;;0.87;50.23
11172;BME280;5642;50.830;12.082;2023-03-12T02:58:30;99183.00;;;0.45;50.98
11172;BME280;5642;50.830;12.082;2023-03-12T03:00:57;99166.66;;;0.35;50.58
11172;BME280;5642;50.830;12.082;2023-03-12T03:03:23;99184.72;;;0.51;50.77
11172;BME280;5642;50.830;12.082;2023-03-12T03:05:50;99166.63;;;0.38;50.42
11172;BME280;5642;50.830;12.082;2023-03-12T03:08:17;99182.13;;;0.46;50.72
11172;BME280;5642;50.830;12.082;2023-03-12T03:10:43;99164.00;;;0.26;50.72
11172;BME280;5642;50.830;12.082;2023-03-12T03:13:11;99200.19;;;0.48;50.84
11172;BME280;5642;50.830;12.082;2023-03-12T03:15:38;99198.50;;;0.50;50.88
11172;BME280;5642;50.830;12.082;2023-03-12T03:18:05;99207.09;;;0.55;50.58
11172;BME280;5642;50.830;12.082;2023-03-12T03:20:31;99181.28;;;0.46;50.68
11172;BME280;5642;50.830;12.082;2023-03-12T03:22:57;99202.84;;;0.64;50.55
11172;BME280;5642;50.830;12.082;2023-03-12T03:25:23;99204.59;;;0.64;50.28
11172;BME280;5642;50.830;12.082;2023-03-12T03:27:49;99210.59;;;0.72;49.94
11172;BME280;5642;50.830;12.082;2023-03-12T03:30:15;99200.31;;;0.69;50.15
11172;BME280;5642;50.830;12.082;2023-03-12T03:32:41;99209.78;;;0.77;50.17
11172;BME280;5642;50.830;12.082;2023-03-12T03:35:09;99201.19;;;0.78;49.76
11172;BME280;5642;50.830;12.082;2023-03-12T03:37:35;99196.88;;;0.74;50.31
11172;BME280;5642;50.830;12.082;2023-03-12T03:40:01;99178.78;;;0.65;49.99
11172;BME280;5642;50.830;12.082;2023-03-12T03:42:27;99195.16;;;0.75;50.03
11172;BME280;5642;50.830;12.082;2023-03-12T03:44:53;99204.63;;;0.79;50.16
11172;BME280;5642;50.830;12.082;2023-03-12T03:47:19;99198.59;;;0.78;49.78
11172;BME280;5642;50.830;12.082;2023-03-12T03:49:46;99207.19;;;0.79;49.81
11172;BME280;5642;50.830;12.082;2023-03-12T03:52:12;99212.34;;;0.79;50.18
11172;BME280;5642;50.830;12.082;2023-03-12T03:54:38;99175.34;;;0.60;49.91
11172;BME280;5642;50.830;12.082;2023-03-12T03:57:04;99179.63;;;0.57;49.88
11172;BME280;5642;50.830;12.082;2023-03-12T03:59:30;99202.88;;;0.69;49.97
11172;BME280;5642;50.830;12.082;2023-03-12T04:01:57;99208.91;;;0.69;49.85
11172;BME280;5642;50.830;12.082;2023-03-12T04:04:23;99214.03;;;0.68;49.81
11172;BME280;5642;50.830;12.082;2023-03-12T04:06:49;99201.97;;;0.61;50.00
11172;BME280;5642;50.830;12.082;2023-03-12T04:09:15;99209.72;;;0.67;49.92
11172;BME280;5642;50.830;12.082;2023-03-12T04:11:41;99213.16;;;0.67;49.88
11172;BME280;5642;50.830;12.082;2023-03-12T04:14:07;99215.75;;;0.67;49.93
11172;BME280;5642;50.830;12.082;2023-03-12T04:16:33;99195.06;;;0.54;50.10
11172;BME280;5642;50.830;12.082;2023-03-12T04:19:00;99217.47;;;0.64;50.07
11172;BME280;5642;50.830;12.082;2023-03-12T04:21:26;99211.44;;;0.62;50.21
11172;BME280;5642;50.830;12.082;2023-03-12T04:23:51;99204.53;;;0.58;49.95
11172;BME280;5642;50.830;12.082;2023-03-12T04:26:17;99195.91;;;0.53;50.43
11172;BME280;5642;50.830;12.082;2023-03-12T04:28:43;99212.28;;;0.56;50.11
11172;BME280;5642;50.830;12.082;2023-03-12T04:31:10;99214.00;;;0.56;50.37
11172;BME280;5642;50.830;12.082;2023-03-12T04:33:37;99186.41;;;0.41;50.27
11172;BME280;5642;50.830;12.082;2023-03-12T04:36:05;99198.50;;;0.54;50.19
11172;BME280;5642;50.830;12.082;2023-03-12T04:38:31;99208.84;;;0.65;50.33
11172;BME280;5642;50.830;12.082;2023-03-12T04:41:03;99208.91;;;0.71;50.20
11172;BME280;5642;50.830;12.082;2023-03-12T04:43:30;99210.66;;;0.83;49.79
11172;BME280;5642;50.830;12.082;2023-03-12T04:45:59;99214.16;;;0.92;49.89
11172;BME280;5642;50.830;12.082;2023-03-12T04:48:27;99213.31;;;1.02;49.98
11172;BME280;5642;50.830;12.082;2023-03-12T04:50:53;99206.47;;;1.15;49.73
11172;BME280;5642;50.830;12.082;2023-03-12T04:53:19;99172.09;;;1.11;49.73
11172;BME280;5642;50.830;12.082;2023-03-12T04:55:45;99201.38;;;1.33;49.57
11172;BME280;5642;50.830;12.082;2023-03-12T04:58:13;99195.34;;;1.37;49.52
11172;BME280;5642;50.830;12.082;2023-03-12T05:58:51;99201.41;;;2.02;49.39
11172;BME280;5642;50.830;12.082;2023-03-12T06:01:24;99209.13;;;2.15;49.23
11172;BME280;5642;50.830;12.082;2023-03-12T06:03:50;99199.69;;;2.19;49.37
11172;BME280;5642;50.830;12.082;2023-03-12T06:06:17;99203.97;;;2.30;49.24
11172;BME280;5642;50.830;12.082;2023-03-12T06:08:44;99192.72;;;2.34;49.24
11172;BME280;5642;50.830;12.082;2023-03-12T06:11:11;99196.19;;;2.46;49.20
11172;BME280;5642;50.830;12.082;2023-03-12T06:13:37;99196.13;;;2.58;48.76
11172;BME280;5642;50.830;12.082;2023-03-12T06:16:06;99206.44;;;2.76;48.85
11172;BME280;5642;50.830;12.082;2023-03-12T06:18:33;99180.56;;;2.71;48.53
11172;BME280;5642;50.830;12.082;2023-03-12T06:21:30;99201.13;;;3.02;48.66
11172;BME280;5642;50.830;12.082;2023-03-12T06:23:57;99201.09;;;3.11;48.71
11172;BME280;5642;50.830;12.082;2023-03-12T06:26:24;99204.41;;;3.36;48.32
11172;BME280;5642;50.830;12.082;2023-03-12T06:28:52;99188.78;;;3.52;48.33
11172;BME280;5642;50.830;12.082;2023-03-12T06:31:19;99204.09;;;3.80;47.79
11172;BME280;5642;50.830;12.082;2023-03-12T06:33:46;99200.47;;;4.01;47.27
11172;BME280;5642;50.830;12.082;2023-03-12T06:36:12;99203.63;;;4.34;47.77
11172;BME280;5642;50.830;12.082;2023-03-12T06:38:39;99177.44;;;4.59;47.10
11172;BME280;5642;50.830;12.082;2023-03-12T06:41:08;99195.94;;;5.03;46.99
11172;BME280;5642;50.830;12.082;2023-03-12T06:43:36;99165.59;;;5.07;46.94
11172;BME280;5642;50.830;12.082;2023-03-12T06:46:04;99189.50;;;5.30;46.44
11172;BME280;5642;50.830;12.082;2023-03-12T06:48:31;99182.25;;;5.54;46.87
11172;BME280;5642;50.830;12.082;2023-03-12T06:50:58;99145.72;;;5.63;46.10
11172;BME280;5642;50.830;12.082;2023-03-12T06:53:24;99161.75;;;5.92;45.83
11172;BME280;5642;50.830;12.082;2023-03-12T06:55:51;99166.66;;;6.09;45.92
11172;BME280;5642;50.830;12.082;2023-03-12T06:58:18;99173.84;;;6.42;45.89
11172;BME280;5642;50.830;12.082;2023-03-12T07:00:44;99159.97;;;6.43;45.95
11172;BME280;5642;50.830;12.082;2023-03-12T07:03:10;99153.53;;;6.61;45.68
11172;BME280;5642;50.830;12.082;2023-03-12T07:05:36;99157.28;;;6.89;45.76
11172;BME280;5642;50.830;12.082;2023-03-12T07:08:02;99159.72;;;6.98;45.33
11172;BME280;5642;50.830;12.082;2023-03-12T07:10:29;99137.03;;;7.03;45.76
11172;BME280;5642;50.830;12.082;2023-03-12T07:12:55;99166.91;;;7.27;46.07
11172;BME280;5642;50.830;12.082;2023-03-12T07:15:22;99153.56;;;7.41;45.28
11172;BME280;5642;50.830;12.082;2023-03-12T07:17:49;99144.50;;;7.93;45.13
11172;BME280;5642;50.830;12.082;2023-03-12T07:20:15;99161.19;;;8.84;44.31
11172;BME280;5642;50.830;12.082;2023-03-12T07:22:41;99135.91;;;9.43;43.75
11172;BME280;5642;50.830;12.082;2023-03-12T07:25:08;99135.84;;;10.26;43.36
11172;BME280;5642;50.830;12.082;2023-03-12T07:27:34;99147.13;;;11.89;42.17
11172;BME280;5642;50.830;12.082;2023-03-12T07:30:00;99128.94;;;13.23;41.46
11172;BME280;5642;50.830;12.082;2023-03-12T07:32:26;99093.03;;;14.46;40.87
11172;BME280;5642;50.830;12.082;2023-03-12T07:34:53;99123.84;;;16.04;40.05
11172;BME280;5642;50.830;12.082;2023-03-12T07:37:19;99118.50;;;17.20;39.72
11172;BME280;5642;50.830;12.082;2023-03-12T07:39:45;99110.91;;;18.23;39.07
11172;BME280;5642;50.830;12.082;2023-03-12T07:42:15;99104.97;;;19.21;38.95
11172;BME280;5642;50.830;12.082;2023-03-12T08:45:58;99049.31;;;26.83;37.24
11172;BME280;5642;50.830;12.082;2023-03-12T08:48:26;99041.19;;;26.41;37.31
11172;BME280;5642;50.830;12.082;2023-03-12T08:50:57;99048.66;;;25.76;37.59
11172;BME280;5642;50.830;12.082;2023-03-12T08:53:25;99021.25;;;25.10;37.74
11172;BME280;5642;50.830;12.082;2023-03-12T08:55:55;99029.84;;;24.76;38.02
11172;BME280;5642;50.830;12.082;2023-03-12T08:58:23;99008.97;;;24.80;37.85
11172;BME280;5642;50.830;12.082;2023-03-12T09:00:53;99009.06;;;24.98;37.59
11172;BME280;5642;50.830;12.082;2023-03-12T09:03:20;99005.81;;;24.94;37.41
11172;BME280;5642;50.830;12.082;2023-03-12T09:05:46;99015.59;;;24.85;37.35
11172;BME280;5642;50.830;12.082;2023-03-12T09:08:14;99015.97;;;24.53;37.48
11172;BME280;5642;50.830;12.082;2023-03-12T09:10:46;99002.47;;;24.45;37.22
11172;BME280;5642;50.830;12.082;2023-03-12T09:13:13;99005.19;;;24.36;37.68
11172;BME280;5642;50.830;12.082;2023-03-12T09:15:39;98999.72;;;24.28;37.41
11172;BME280;5642;50.830;12.082;2023-03-12T09:18:05;98974.91;;;24.35;37.39
11172;BME280;5642;50.830;12.082;2023-03-12T09:20:31;98982.22;;;24.33;37.44
11172;BME280;5642;50.830;12.082;2023-03-12T09:22:57;98993.06;;;24.41;37.10
11172;BME280;5642;50.830;12.082;2023-03-12T09:25:23;98988.44;;;24.34;36.84
11172;BME280;5642;50.830;12.082;2023-03-12T09:27:50;99000.69;;;24.27;36.92
11172;BME280;5642;50.830;12.082;2023-03-12T09:30:20;98983.03;;;23.58;37.44
11172;BME280;5642;50.830;12.082;2023-03-12T09:32:48;98999.78;;;23.01;37.47
11172;BME280;5642;50.830;12.082;2023-03-12T09:35:15;99000.69;;;22.50;37.34
11172;BME280;5642;50.830;12.082;2023-03-12T09:37:42;98994.28;;;22.11;37.46
11172;BME280;5642;50.830;12.082;2023-03-12T09:40:15;99011.94;;;21.71;37.56
11172;BME280;5642;50.830;12.082;2023-03-12T09:42:53;99013.19;;;21.67;37.38
11172;BME280;5642;50.830;12.082;2023-03-12T11:50:32;98964.84;;;12.54;38.02
11172;BME280;5642;50.830;12.082;2023-03-12T11:58:45;98945.09;;;12.45;37.76
11172;BME280;5642;50.830;12.082;2023-03-12T12:01:26;98899.19;;;12.35;37.65
11172;BME280;5642;50.830;12.082;2023-03-12T12:09:35;98923.50;;;12.57;37.66
11172;BME280;5642;50.830;12.082;2023-03-12T12:18:28;98903.69;;;12.50;37.57
11172;BME280;5642;50.830;12.082;2023-03-12T12:21:31;98894.13;;;12.49;37.64
11172;BME280;5642;50.830;12.082;2023-03-12T12:24:08;98891.06;;;12.40;38.16
11172;BME280;5642;50.830;12.082;2023-03-12T12:26:56;98875.63;;;12.34;38.08
11172;BME280;5642;50.830;12.082;2023-03-12T12:38:38;98875.44;;;12.37;38.12
11172;BME280;5642;50.830;12.082;2023-03-12T12:40:49;98873.59;;;12.39;37.80
11172;BME280;5642;50.830;12.082;2023-03-12T12:43:27;98857.28;;;12.32;37.72
11172;BME280;5642;50.830;12.082;2023-03-12T12:45:59;98820.41;;;11.98;37.79
11172;BME280;5642;50.830;12.082;2023-03-12T12:51:02;98795.19;;;11.56;37.97
11172;BME280;5642;50.830;12.082;2023-03-12T12:56:21;98838.28;;;11.51;38.17
11172;BME280;5642;50.830;12.082;2023-03-12T12:59:24;98856.28;;;11.58;38.32
11172;BME280;5642;50.830;12.082;2023-03-12T13:01:56;98800.34;;;11.39;38.10
11172;BME280;5642;50.830;12.082;2023-03-12T13:04:37;98835.91;;;11.65;38.11
11172;BME280;5642;50.830;12.082;2023-03-12T13:09:41;98806.16;;;11.46;38.26
11172;BME280;5642;50.830;12.082;2023-03-12T13:12:24;98777.94;;;11.32;38.18
11172;BME280;5642;50.830;12.082;2023-03-12T13:14:54;98837.69;;;11.64;38.43
11172;BME280;5642;50.830;12.082;2023-03-12T13:17:27;98817.03;;;11.57;38.40
11172;BME280;5642;50.830;12.082;2023-03-12T13:19:59;98768.16;;;11.35;38.25
11172;BME280;5642;50.830;12.082;2023-03-12T13:25:49;98806.78;;;11.71;38.33
11172;BME280;5642;50.830;12.082;2023-03-12T13:33:50;98784.94;;;11.89;38.58
11172;BME280;5642;50.830;12.082;2023-03-12T13:41:40;98816.84;;;12.18;38.44
11172;BME280;5642;50.830;12.082;2023-03-12T13:52:27;98817.59;;;12.57;38.18
11172;BME280;5642;50.830;12.082;2023-03-12T13:57:38;98798.63;;;12.50;38.35
11172;BME280;5642;50.830;12.082;2023-03-12T14:02:49;98805.31;;;12.39;38.77
11172;BME280;5642;50.830;12.082;2023-03-12T14:05:19;98808.88;;;12.38;38.46
11172;BME280;5642;50.830;12.082;2023-03-12T14:10:50;98766.66;;;12.24;38.83
11172;BME280;5642;50.830;12.082;2023-03-12T14:13:38;98807.88;;;12.40;38.51
11172;BME280;5642;50.830;12.082;2023-03-12T14:18:43;98750.97;;;12.05;38.96
11172;BME280;5642;50.830;12.082;2023-03-12T14:21:14;98745.44;;;11.92;38.91
11172;BME280;5642;50.830;12.082;2023-03-12T14:23:49;98761.56;;;11.85;38.73
11172;BME280;5642;50.830;12.082;2023-03-12T14:26:29;98789.97;;;11.94;39.28
11172;BME280;5642;50.830;12.082;2023-03-12T14:31:32;98782.00;;;11.78;39.24
11172;BME280;5642;50.830;12.082;2023-03-12T14:37:01;98785.13;;;11.86;39.14
11172;BME280;5642;50.830;12.082;2023-03-12T14:39:48;98777.25;;;11.86;38.92
11172;BME280;5642;50.830;12.082;2023-03-12T14:42:28;98731.91;;;11.64;39.21
11172;BME280;5642;50.830;12.082;2023-03-12T14:45:09;98771.53;;;11.95;39.23
11172;BME280;5642;50.830;12.082;2023-03-12T14:47:39;98735.81;;;11.74;39.17
11172;BME280;5642;50.830;12.082;2023-03-12T14:50:14;98782.75;;;11.99;39.01
11172;BME280;5642;50.830;12.082;2023-03-12T14:52:41;98729.34;;;11.62;39.26
11172;BME280;5642;50.830;12.082;2023-03-12T14:55:16;98711.22;;;11.58;39.14
11172;BME280;5642;50.830;12.082;2023-03-12T14:57:45;98791.50;;;11.99;39.38
11172;BME280;5642;50.830;12.082;2023-03-12T15:00:23;98778.44;;;11.98;39.21
11172;BME280;5642;50.830;12.082;2023-03-12T15:02:52;98755.88;;;11.75;39.06
11172;BME280;5642;50.830;12.082;2023-03-12T15:05:20;98780.78;;;11.85;39.40
11172;BME280;5642;50.830;12.082;2023-03-12T15:07:47;98776.59;;;11.81;39.65
11172;BME280;5642;50.830;12.082;2023-03-12T15:10:26;98733.47;;;11.49;39.61
11172;BME280;5642;50.830;12.082;2023-03-12T15:12:55;98763.16;;;11.68;39.40
11172;BME280;5642;50.830;12.082;2023-03-12T15:18:23;98719.69;;;11.25;39.57
11172;BME280;5642;50.830;12.082;2023-03-12T15:20:47;98772.13;;;11.44;39.83
11172;BME280;5642;50.830;12.082;2023-03-12T15:23:22;98767.09;;;11.39;39.85
11172;BME280;5642;50.830;12.082;2023-03-12T15:26:13;98725.03;;;11.04;40.08
11172;BME280;5642;50.830;12.082;2023-03-12T15:28:42;98762.75;;;11.20;40.15
11172;BME280;5642;50.830;12.082;2023-03-12T15:31:14;98722.81;;;10.94;40.17
11172;BME280;5642;50.830;12.082;2023-03-12T15:33:42;98716.13;;;10.87;39.94
11172;BME280;5642;50.830;12.082;2023-03-12T15:36:23;98764.06;;;11.10;40.17
11172;BME280;5642;50.830;12.082;2023-03-12T15:38:56;98745.41;;;10.97;40.24
11172;BME280;5642;50.830;12.082;2023-03-12T15:41:41;98720.19;;;10.74;40.47
11172;BME280;5642;50.830;12.082;2023-03-12T15:44:17;98730.78;;;10.73;40.28
11172;BME280;5642;50.830;12.082;2023-03-12T17:46:45;98848.22;;;10.16;42.06
11172;BME280;5642;50.830;12.082;2023-03-12T17:49:11;98846.50;;;10.17;42.14
11172;BME280;5642;50.830;12.082;2023-03-12T17:51:37;98840.25;;;10.21;42.12
11172;BME280;5642;50.830;12.082;2023-03-12T17:54:03;98841.88;;;10.24;42.16
11172;BME280;5642;50.830;12.082;2023-03-12T17:56:32;98832.44;;;10.19;42.27
11172;BME280;5642;50.830;12.082;2023-03-12T17:58:58;98832.50;;;10.16;42.18
11172;BME280;5642;50.830;12.082;2023-03-12T18:01:24;98846.34;;;10.22;42.28
11172;BME280;5642;50.830;12.082;2023-03-12T18:03:50;98841.16;;;10.20;42.12
11172;BME280;5642;50.830;12.082;2023-03-12T18:06:16;98852.22;;;10.27;42.34
11172;BME280;5642;50.830;12.082;2023-03-12T18:08:42;98828.31;;;10.12;42.10
11172;BME280;5642;50.830;12.082;2023-03-12T18:11:08;98840.97;;;10.25;42.23
11172;BME280;5642;50.830;12.082;2023-03-12T18:13:34;98853.03;;;10.29;42.29
11172;BME280;5642;50.830;12.082;2023-03-12T18:16:17;98842.56;;;10.29;42.16
11172;BME280;5642;50.830;12.082;2023-03-12T18:18:46;98839.16;;;10.27;42.22
11172;BME280;5642;50.830;12.082;2023-03-12T18:21:12;98847.66;;;10.32;42.27
11172;BME280;5642;50.830;12.082;2023-03-12T18:23:38;98838.28;;;10.26;42.24
11172;BME280;5642;50.830;12.082;2023-03-12T18:26:07;98841.56;;;10.31;42.31
11172;BME280;5642;50.830;12.082;2023-03-12T18:28:33;98826.00;;;10.28;42.32
11172;BME280;5642;50.830;12.082;2023-03-12T18:30:59;98834.47;;;10.35;42.38
11172;BME280;5642;50.830;12.082;2023-03-12T18:33:25;98836.16;;;10.36;42.20
11172;BME280;5642;50.830;12.082;2023-03-12T18:35:53;98825.56;;;10.39;42.54
11172;BME280;5642;50.830;12.082;2023-03-12T18:38:19;98819.56;;;10.37;42.51
11172;BME280;5642;50.830;12.082;2023-03-12T18:40:44;98829.09;;;10.38;42.47
11172;BME280;5642;50.830;12.082;2023-03-12T18:43:10;98826.56;;;10.36;42.57
11172;BME280;5642;50.830;12.082;2023-03-12T18:45:41;98824.78;;;10.37;42.39
11172;BME280;5642;50.830;12.082;2023-03-12T18:48:09;98841.22;;;10.40;42.62
11172;BME280;5642;50.830;12.082;2023-03-12T18:50:36;98819.91;;;10.28;42.64
11172;BME280;5642;50.830;12.082;2023-03-12T18:53:03;98822.28;;;10.34;42.50
11172;BME280;5642;50.830;12.082;2023-03-12T18:55:29;98827.22;;;10.41;42.67
11172;BME280;5642;50.830;12.082;2023-03-12T18:57:59;98797.97;;;10.30;42.85
11172;BME280;5642;50.830;12.082;2023-03-12T19:00:29;98827.81;;;10.48;42.80
11172;BME280;5642;50.830;12.082;2023-03-12T19:02:55;98820.06;;;10.45;42.59
11172;BME280;5642;50.830;12.082;2023-03-12T19:05:22;98837.06;;;10.56;42.53
11172;BME280;5642;50.830;12.082;2023-03-12T19:07:49;98805.22;;;10.45;42.72
11172;BME280;5642;50.830;12.082;2023-03-12T19:10:15;98811.78;;;10.55;42.90
11172;BME280;5642;50.830;12.082;2023-03-12T19:12:42;98795.72;;;10.65;42.76
11172;BME280;5642;50.830;12.082;2023-03-12T19:15:09;98802.97;;;10.58;42.81
11172;BME280;5642;50.830;12.082;2023-03-12T19:17:35;98800.66;;;10.50;42.94
11172;BME280;5642;50.830;12.082;2023-03-12T19:20:01;98798.06;;;10.50;42.97
11172;BME280;5642;50.830;12.082;2023-03-12T19:22:27;98832.28;;;10.66;42.86
11172;BME280;5642;50.830;12.082;2023-03-12T19:24:53;98766.56;;;10.30;43.01
11172;BME280;5642;50.830;12.082;2023-03-12T19:27:20;98808.13;;;10.59;42.82
11172;BME280;5642;50.830;12.082;2023-03-12T19:29:46;98787.81;;;10.44;43.05
11172;BME280;5642;50.830;12.082;2023-03-12T19:32:12;98839.66;;;10.78;42.74
11172;BME280;5642;50.830;12.082;2023-03-12T19:34:39;98839.53;;;10.81;42.89
11172;BME280;5642;50.830;12.082;2023-03-12T19:37:05;98810.38;;;10.69;42.91
11172;BME280;5642;50.830;12.082;2023-03-12T19:39:31;98783.69;;;10.59;42.86
11172;BME280;5642;50.830;12.082;2023-03-12T19:41:57;98842.38;;;10.97;43.08
11172;BME280;5642;50.830;12.082;2023-03-12T21:44:21;98784.88;;;11.33;44.20
11172;BME280;5642;50.830;12.082;2023-03-12T21:46:48;98781.41;;;11.32;43.88
11172;BME280;5642;50.830;12.082;2023-03-12T21:49:13;98770.22;;;11.29;43.78
11172;BME280;5642;50.830;12.082;2023-03-12T21:51:43;98784.03;;;11.32;44.15
11172;BME280;5642;50.830;12.082;2023-03-12T21:54:09;98789.06;;;11.37;44.13
11172;BME280;5642;50.830;12.082;2023-03-12T21:56:35;98772.75;;;11.30;44.44
11172;BME280;5642;50.830;12.082;2023-03-12T21:59:02;98791.50;;;11.42;44.21
11172;BME280;5642;50.830;12.082;2023-03-12T22:01:28;98793.97;;;11.45;44.41
11172;BME280;5642;50.830;12.082;2023-03-12T22:03:54;98775.88;;;11.38;44.38
11172;BME280;5642;50.830;12.082;2023-03-12T22:06:20;98747.66;;;11.25;44.12
11172;BME280;5642;50.830;12.082;2023-03-12T22:08:51;98799.53;;;11.57;44.05
11172;BME280;5642;50.830;12.082;2023-03-12T22:11:17;98779.81;;;11.49;44.21
11172;BME280;5642;50.830;12.082;2023-03-12T22:13:43;98768.31;;;11.51;44.12
11172;BME280;5642;50.830;12.082;2023-03-12T22:16:11;98793.78;;;11.68;44.04
11172;BME280;5642;50.830;12.082;2023-03-12T22:18:40;98797.13;;;11.71;44.35
11172;BME280;5642;50.830;12.082;2023-03-12T22:21:07;98797.03;;;11.73;44.15
11172;BME280;5642;50.830;12.082;2023-03-12T22:23:35;98744.88;;;11.48;44.37
11172;BME280;5642;50.830;12.082;2023-03-12T22:26:03;98757.41;;;11.60;44.37
11172;BME280;5642;50.830;12.082;2023-03-12T22:28:29;98794.31;;;11.76;44.24
11172;BME280;5642;50.830;12.082;2023-03-12T22:31:04;98788.09;;;11.79;44.32
11172;BME280;5642;50.830;12.082;2023-03-12T22:33:32;98784.00;;;11.71;44.33
11172;BME280;5642;50.830;12.082;2023-03-12T22:36:07;98753.94;;;11.60;44.08
11172;BME280;5642;50.830;12.082;2023-03-12T22:38:34;98786.38;;;11.77;44.47
11172;BME280;5642;50.830;12.082;2023-03-12T22:41:21;98774.25;;;11.75;44.15
11172;BME280;5642;50.830;12.082;2023-03-12T22:43:49;98764.84;;;11.69;44.39
11172;BME280;5642;50.830;12.082;2023-03-12T22:46:17;98734.03;;;11.56;44.15
11172;BME280;5642;50.830;12.082;2023-03-12T22:48:45;98773.09;;;11.81;44.27
11172;BME280;5642;50.830;12.082;2023-03-12T22:51:12;98714.03;;;11.53;44.35
11172;BME280;5642;50.830;12.082;2023-03-12T22:53:39;98741.31;;;11.68;44.33
11172;BME280;5642;50.830;12.082;2023-03-12T22:56:08;98762.53;;;11.82;44.63
11172;BME280;5642;50.830;12.082;2023-03-12T22:58:34;98759.22;;;11.79;44.53
11172;BME280;5642;50.830;12.082;2023-03-12T23:01:07;98752.34;;;11.76;44.26
11172;BME280;5642;50.830;12.082;2023-03-12T23:03:35;98735.16;;;11.69;44.61
11172;BME280;5642;50.830;12.082;2023-03-12T23:06:13;98736.00;;;11.69;44.34
11172;BME280;5642;50.830;12.082;2023-03-12T23:08:40;98713.88;;;11.56;44.56
11172;BME280;5642;50.830;12.082;2023-03-12T23:11:08;98759.91;;;11.82;44.58
11172;BME280;5642;50.830;12.082;2023-03-12T23:13:37;98736.91;;;11.68;44.80
11172;BME280;5642;50.830;12.082;2023-03-12T23:16:06;98759.84;;;11.84;44.75
11172;BME280;5642;50.830;12.082;2023-03-12T23:18:33;98751.47;;;11.75;44.46
11172;BME280;5642;50.830;12.082;2023-03-12T23:21:02;98758.28;;;11.80;44.44
11172;BME280;5642;50.830;12.082;2023-03-12T23:23:29;98759.22;;;11.79;44.86
11172;BME280;5642;50.830;12.082;2023-03-12T23:25:57;98757.59;;;11.76;44.61
11172;BME280;5642;50.830;12.082;2023-03-12T23:28:24;98715.72;;;11.54;44.41
11172;BME280;5642;50.830;12.082;2023-03-12T23:31:09;98749.72;;;11.76;44.76
11172;BME280;5642;50.830;12.082;2023-03-12T23:33:35;98727.69;;;11.60;44.92
11172;BME280;5642;50.830;12.082;2023-03-12T23:36:09;98748.78;;;11.77;44.41
11172;BME280;5642;50.830;12.082;2023-03-12T23:38:36;98718.22;;;11.57;44.71
11172;BME280;5642;50.830;12.082;2023-03-12T23:41:07;98747.09;;;11.76;44.52
11172;BME280;5642;50.830;12.082;2023-03-12T23:43:35;98755.88;;;11.75;44.47
